sensor_id;sensor_type;location;lat;lon;timestamp;P1;durP1;ratioP1;P2;durP2;ratioP2
69856;SDS011;57147;53.582;10.112;2023-04-16T00:02:16;26.75;;;15.40;;
69856;SDS011;57147;53.582;10.112;2023-04-16T00:07:16;26.70;;;15.77;;
69856;SDS011;57147;53.582;10.112;2023-04-16T00:12:20;26.13;;;14.02;;
69856;SDS011;57147;53.582;10.112;2023-04-16T00:17:21;24.73;;;15.00;;
69856;SDS011;57147;53.582;10.112;2023-04-16T00:22:21;22.85;;;14.55;;
69856;SDS011;57147;53.582;10.112;2023-04-16T00:27:24;22.75;;;13.23;;
69856;SDS011;57147;53.582;10.112;2023-04-16T00:32:25;23.13;;;15.48;;
69856;SDS011;57147;53.582;10.112;2023-04-16T00:37:26;24.95;;;14.55;;
69856;SDS011;57147;53.582;10.112;2023-04-16T00:42:29;22.02;;;13.95;;
69856;SDS011;57147;53.582;10.112;2023-04-16T00:47:29;20.92;;;13.52;;
69856;SDS011;57147;53.582;10.112;2023-04-16T00:52:31;25.65;;;15.43;;
69856;SDS011;57147;53.582;10.112;2023-04-16T00:57:34;24.40;;;13.57;;
69856;SDS011;57147;53.582;10.112;2023-04-16T01:02:35;22.77;;;13.75;;
69856;SDS011;57147;53.582;10.112;2023-04-16T01:07:35;22.48;;;12.60;;
69856;SDS011;57147;53.582;10.112;2023-04-16T01:12:39;22.17;;;13.27;;
69856;SDS011;57147;53.582;10.112;2023-04-16T01:17:40;22.77;;;14.10;;
69856;SDS011;57147;53.582;10.112;2023-04-16T01:22:43;19.10;;;12.07;;
69856;SDS011;57147;53.582;10.112;2023-04-16T01:27:43;18.88;;;12.45;;
69856;SDS011;57147;53.582;10.112;2023-04-16T01:32:44;18.17;;;11.73;;
69856;SDS011;57147;53.582;10.112;2023-04-16T01:37:47;21.88;;;11.85;;
69856;SDS011;57147;53.582;10.112;2023-04-16T01:42:49;19.42;;;11.55;;
69856;SDS011;57147;53.582;10.112;2023-04-16T01:47:49;22.88;;;12.57;;
69856;SDS011;57147;53.582;10.112;2023-04-16T01:52:53;18.90;;;11.27;;
69856;SDS011;57147;53.582;10.112;2023-04-16T01:57:54;18.17;;;11.57;;
69856;SDS011;57147;53.582;10.112;2023-04-16T02:02:54;18.50;;;12.10;;
69856;SDS011;57147;53.582;10.112;2023-04-16T02:07:58;17.55;;;10.40;;
69856;SDS011;57147;53.582;10.112;2023-04-16T02:12:58;18.25;;;11.32;;
69856;SDS011;57147;53.582;10.112;2023-04-16T02:17:59;18.30;;;12.10;;
69856;SDS011;57147;53.582;10.112;2023-04-16T02:23:02;17.25;;;12.65;;
69856;SDS011;57147;53.582;10.112;2023-04-16T02:28:03;19.67;;;12.40;;
69856;SDS011;57147;53.582;10.112;2023-04-16T02:33:04;18.73;;;11.93;;
69856;SDS011;57147;53.582;10.112;2023-04-16T02:38:08;22.00;;;13.77;;
69856;SDS011;57147;53.582;10.112;2023-04-16T02:43:08;19.90;;;12.30;;
69856;SDS011;57147;53.582;10.112;2023-04-16T02:48:09;18.38;;;12.20;;
69856;SDS011;57147;53.582;10.112;2023-04-16T02:53:12;18.23;;;14.63;;
69856;SDS011;57147;53.582;10.112;2023-04-16T02:58:12;18.92;;;11.45;;
69856;SDS011;57147;53.582;10.112;2023-04-16T03:03:13;20.20;;;11.88;;
69856;SDS011;57147;53.582;10.112;2023-04-16T03:08:16;21.20;;;11.27;;
69856;SDS011;57147;53.582;10.112;2023-04-16T03:13:17;19.73;;;11.63;;
69856;SDS011;57147;53.582;10.112;2023-04-16T03:18:17;18.60;;;11.55;;
69856;SDS011;57147;53.582;10.112;2023-04-16T03:23:21;18.80;;;14.85;;
69856;SDS011;57147;53.582;10.112;2023-04-16T03:28:21;18.52;;;12.13;;
69856;SDS011;57147;53.582;10.112;2023-04-16T03:33:22;21.35;;;15.55;;
69856;SDS011;57147;53.582;10.112;2023-04-16T03:38:25;20.25;;;11.57;;
69856;SDS011;57147;53.582;10.112;2023-04-16T03:43:26;18.95;;;12.52;;
69856;SDS011;57147;53.582;10.112;2023-04-16T03:48:26;19.45;;;11.95;;
69856;SDS011;57147;53.582;10.112;2023-04-16T03:53:29;20.45;;;11.40;;
69856;SDS011;57147;53.582;10.112;2023-04-16T03:58:30;21.13;;;13.25;;
69856;SDS011;57147;53.582;10.112;2023-04-16T04:03:30;19.05;;;12.48;;
69856;SDS011;57147;53.582;10.112;2023-04-16T04:08:34;18.83;;;12.88;;
69856;SDS011;57147;53.582;10.112;2023-04-16T04:13:34;19.55;;;13.40;;
69856;SDS011;57147;53.582;10.112;2023-04-16T04:18:35;22.33;;;13.68;;
69856;SDS011;57147;53.582;10.112;2023-04-16T04:23:39;21.75;;;14.15;;
69856;SDS011;57147;53.582;10.112;2023-04-16T04:28:39;21.52;;;12.82;;
69856;SDS011;57147;53.582;10.112;2023-04-16T04:33:40;23.63;;;14.73;;
69856;SDS011;57147;53.582;10.112;2023-04-16T04:38:44;25.55;;;17.60;;
69856;SDS011;57147;53.582;10.112;2023-04-16T04:43:45;20.75;;;14.68;;
69856;SDS011;57147;53.582;10.112;2023-04-16T04:48:45;24.15;;;14.55;;
69856;SDS011;57147;53.582;10.112;2023-04-16T04:53:48;21.67;;;14.45;;
69856;SDS011;57147;53.582;10.112;2023-04-16T04:58:49;22.73;;;13.50;;
69856;SDS011;57147;53.582;10.112;2023-04-16T05:03:50;21.75;;;13.43;;
69856;SDS011;57147;53.582;10.112;2023-04-16T05:08:53;21.90;;;14.98;;
69856;SDS011;57147;53.582;10.112;2023-04-16T05:13:54;22.90;;;13.88;;
69856;SDS011;57147;53.582;10.112;2023-04-16T05:18:54;20.17;;;13.02;;
69856;SDS011;57147;53.582;10.112;2023-04-16T05:23:58;21.70;;;14.32;;
69856;SDS011;57147;53.582;10.112;2023-04-16T05:28:58;21.63;;;14.18;;
69856;SDS011;57147;53.582;10.112;2023-04-16T05:33:59;24.42;;;17.17;;
69856;SDS011;57147;53.582;10.112;2023-04-16T05:39:02;21.20;;;13.50;;
69856;SDS011;57147;53.582;10.112;2023-04-16T05:44:03;24.38;;;16.17;;
69856;SDS011;57147;53.582;10.112;2023-04-16T05:49:04;22.25;;;13.57;;
69856;SDS011;57147;53.582;10.112;2023-04-16T05:54:07;22.60;;;13.68;;
69856;SDS011;57147;53.582;10.112;2023-04-16T05:59:08;23.73;;;14.55;;
69856;SDS011;57147;53.582;10.112;2023-04-16T06:04:08;23.50;;;13.77;;
69856;SDS011;57147;53.582;10.112;2023-04-16T06:09:11;20.30;;;13.73;;
69856;SDS011;57147;53.582;10.112;2023-04-16T06:14:12;23.75;;;14.65;;
69856;SDS011;57147;53.582;10.112;2023-04-16T06:19:13;22.27;;;14.05;;
69856;SDS011;57147;53.582;10.112;2023-04-16T06:24:16;26.42;;;15.10;;
69856;SDS011;57147;53.582;10.112;2023-04-16T06:29:16;23.10;;;13.82;;
69856;SDS011;57147;53.582;10.112;2023-04-16T06:34:17;21.35;;;12.80;;
69856;SDS011;57147;53.582;10.112;2023-04-16T06:39:20;23.38;;;13.93;;
69856;SDS011;57147;53.582;10.112;2023-04-16T06:44:21;20.98;;;14.18;;
69856;SDS011;57147;53.582;10.112;2023-04-16T06:49:21;24.02;;;15.38;;
69856;SDS011;57147;53.582;10.112;2023-04-16T06:54:25;23.63;;;14.43;;
69856;SDS011;57147;53.582;10.112;2023-04-16T06:59:25;22.10;;;14.95;;
69856;SDS011;57147;53.582;10.112;2023-04-16T07:04:26;21.35;;;12.90;;
69856;SDS011;57147;53.582;10.112;2023-04-16T07:09:29;24.02;;;15.18;;
69856;SDS011;57147;53.582;10.112;2023-04-16T07:14:30;22.80;;;14.73;;
69856;SDS011;57147;53.582;10.112;2023-04-16T07:19:30;18.70;;;13.30;;
69856;SDS011;57147;53.582;10.112;2023-04-16T07:24:34;18.73;;;13.55;;
69856;SDS011;57147;53.582;10.112;2023-04-16T07:29:34;23.80;;;13.77;;
69856;SDS011;57147;53.582;10.112;2023-04-16T07:34:35;18.35;;;12.27;;
69856;SDS011;57147;53.582;10.112;2023-04-16T07:39:38;20.60;;;13.52;;
69856;SDS011;57147;53.582;10.112;2023-04-16T07:44:39;17.50;;;11.20;;
69856;SDS011;57147;53.582;10.112;2023-04-16T07:49:39;18.85;;;12.55;;
69856;SDS011;57147;53.582;10.112;2023-04-16T07:54:43;20.20;;;13.02;;
69856;SDS011;57147;53.582;10.112;2023-04-16T07:59:43;19.85;;;12.07;;
69856;SDS011;57147;53.582;10.112;2023-04-16T08:04:44;19.98;;;12.15;;
69856;SDS011;57147;53.582;10.112;2023-04-16T08:09:50;19.33;;;11.63;;
69856;SDS011;57147;53.582;10.112;2023-04-16T08:14:52;18.83;;;12.77;;
69856;SDS011;57147;53.582;10.112;2023-04-16T08:19:52;17.33;;;10.38;;
69856;SDS011;57147;53.582;10.112;2023-04-16T08:24:55;19.00;;;11.40;;
69856;SDS011;57147;53.582;10.112;2023-04-16T08:29:56;18.95;;;14.40;;
69856;SDS011;57147;53.582;10.112;2023-04-16T08:34:57;19.90;;;12.00;;
69856;SDS011;57147;53.582;10.112;2023-04-16T08:40:00;16.20;;;11.07;;
69856;SDS011;57147;53.582;10.112;2023-04-16T08:50:31;17.73;;;12.10;;
69856;SDS011;57147;53.582;10.112;2023-04-16T08:55:37;18.55;;;12.18;;
69856;SDS011;57147;53.582;10.112;2023-04-16T09:00:42;16.60;;;10.95;;
69856;SDS011;57147;53.582;10.112;2023-04-16T09:05:43;18.73;;;11.48;;
69856;SDS011;57147;53.582;10.112;2023-04-16T09:10:48;17.45;;;12.35;;
69856;SDS011;57147;53.582;10.112;2023-04-16T09:15:50;17.42;;;14.00;;
69856;SDS011;57147;53.582;10.112;2023-04-16T09:20:53;15.25;;;11.68;;
69856;SDS011;57147;53.582;10.112;2023-04-16T09:25:56;15.35;;;10.80;;
69856;SDS011;57147;53.582;10.112;2023-04-16T09:31:06;16.30;;;11.30;;
69856;SDS011;57147;53.582;10.112;2023-04-16T09:36:07;16.95;;;13.38;;
69856;SDS011;57147;53.582;10.112;2023-04-16T09:41:11;15.52;;;11.10;;
69856;SDS011;57147;53.582;10.112;2023-04-16T09:46:12;16.27;;;10.88;;
69856;SDS011;57147;53.582;10.112;2023-04-16T09:51:13;14.75;;;9.90;;
69856;SDS011;57147;53.582;10.112;2023-04-16T09:56:16;14.20;;;10.27;;
69856;SDS011;57147;53.582;10.112;2023-04-16T10:01:18;13.02;;;9.38;;
69856;SDS011;57147;53.582;10.112;2023-04-16T10:06:19;14.27;;;10.07;;
69856;SDS011;57147;53.582;10.112;2023-04-16T10:11:24;13.98;;;9.93;;
69856;SDS011;57147;53.582;10.112;2023-04-16T10:16:25;13.00;;;9.75;;
69856;SDS011;57147;53.582;10.112;2023-04-16T10:21:26;13.88;;;10.00;;
69856;SDS011;57147;53.582;10.112;2023-04-16T10:26:30;13.23;;;8.90;;
69856;SDS011;57147;53.582;10.112;2023-04-16T10:36:34;12.20;;;8.38;;
69856;SDS011;57147;53.582;10.112;2023-04-16T10:41:38;11.25;;;9.68;;
69856;SDS011;57147;53.582;10.112;2023-04-16T10:46:40;10.82;;;7.43;;
69856;SDS011;57147;53.582;10.112;2023-04-16T10:51:41;11.05;;;8.13;;
69856;SDS011;57147;53.582;10.112;2023-04-16T10:56:45;11.25;;;8.27;;
69856;SDS011;57147;53.582;10.112;2023-04-16T11:01:48;13.13;;;8.80;;
69856;SDS011;57147;53.582;10.112;2023-04-16T11:06:59;14.52;;;9.88;;
69856;SDS011;57147;53.582;10.112;2023-04-16T11:12:03;13.10;;;8.75;;
69856;SDS011;57147;53.582;10.112;2023-04-16T11:17:08;14.27;;;10.15;;
69856;SDS011;57147;53.582;10.112;2023-04-16T11:22:11;14.65;;;9.90;;
69856;SDS011;57147;53.582;10.112;2023-04-16T11:27:15;16.00;;;10.88;;
69856;SDS011;57147;53.582;10.112;2023-04-16T11:32:19;15.15;;;10.23;;
69856;SDS011;57147;53.582;10.112;2023-04-16T11:37:20;14.10;;;10.18;;
69856;SDS011;57147;53.582;10.112;2023-04-16T11:42:33;12.82;;;10.15;;
69856;SDS011;57147;53.582;10.112;2023-04-16T11:47:41;11.45;;;8.27;;
69856;SDS011;57147;53.582;10.112;2023-04-16T11:52:42;10.27;;;8.43;;
69856;SDS011;57147;53.582;10.112;2023-04-16T11:57:46;11.73;;;9.32;;
69856;SDS011;57147;53.582;10.112;2023-04-16T12:02:48;13.95;;;10.02;;
69856;SDS011;57147;53.582;10.112;2023-04-16T12:07:50;13.38;;;8.07;;
69856;SDS011;57147;53.582;10.112;2023-04-16T12:12:53;11.18;;;8.43;;
69856;SDS011;57147;53.582;10.112;2023-04-16T12:18:05;10.88;;;7.10;;
69856;SDS011;57147;53.582;10.112;2023-04-16T12:23:06;11.13;;;7.65;;
69856;SDS011;57147;53.582;10.112;2023-04-16T12:28:09;12.40;;;11.10;;
69856;SDS011;57147;53.582;10.112;2023-04-16T12:33:13;11.55;;;10.30;;
69856;SDS011;57147;53.582;10.112;2023-04-16T12:38:15;14.40;;;8.50;;
69856;SDS011;57147;53.582;10.112;2023-04-16T12:43:19;13.02;;;9.63;;
69856;SDS011;57147;53.582;10.112;2023-04-16T12:48:20;12.77;;;9.15;;
69856;SDS011;57147;53.582;10.112;2023-04-16T12:53:20;14.98;;;9.90;;
69856;SDS011;57147;53.582;10.112;2023-04-16T12:58:23;12.80;;;9.82;;
69856;SDS011;57147;53.582;10.112;2023-04-16T13:03:24;13.68;;;9.70;;
69856;SDS011;57147;53.582;10.112;2023-04-16T13:08:25;15.80;;;11.13;;
69856;SDS011;57147;53.582;10.112;2023-04-16T13:13:28;14.07;;;9.70;;
69856;SDS011;57147;53.582;10.112;2023-04-16T13:18:28;14.82;;;9.35;;
69856;SDS011;57147;53.582;10.112;2023-04-16T13:23:29;14.65;;;10.48;;
69856;SDS011;57147;53.582;10.112;2023-04-16T13:28:33;13.52;;;9.93;;
69856;SDS011;57147;53.582;10.112;2023-04-16T13:33:33;17.88;;;10.35;;
69856;SDS011;57147;53.582;10.112;2023-04-16T13:38:34;12.38;;;9.27;;
69856;SDS011;57147;53.582;10.112;2023-04-16T13:43:37;17.55;;;12.90;;
69856;SDS011;57147;53.582;10.112;2023-04-16T13:48:37;14.88;;;9.55;;
69856;SDS011;57147;53.582;10.112;2023-04-16T13:53:39;13.82;;;10.50;;
69856;SDS011;57147;53.582;10.112;2023-04-16T13:58:42;15.30;;;9.57;;
69856;SDS011;57147;53.582;10.112;2023-04-16T14:03:43;15.40;;;11.23;;
69856;SDS011;57147;53.582;10.112;2023-04-16T14:08:43;17.90;;;10.05;;
69856;SDS011;57147;53.582;10.112;2023-04-16T14:13:47;11.15;;;8.57;;
69856;SDS011;57147;53.582;10.112;2023-04-16T14:18:47;14.60;;;9.98;;
69856;SDS011;57147;53.582;10.112;2023-04-16T14:23:48;15.32;;;11.18;;
69856;SDS011;57147;53.582;10.112;2023-04-16T14:28:52;16.80;;;11.82;;
69856;SDS011;57147;53.582;10.112;2023-04-16T14:33:53;13.90;;;11.13;;
69856;SDS011;57147;53.582;10.112;2023-04-16T14:38:54;15.82;;;10.68;;
69856;SDS011;57147;53.582;10.112;2023-04-16T14:44:04;15.73;;;11.23;;
69856;SDS011;57147;53.582;10.112;2023-04-16T14:49:07;15.25;;;11.05;;
69856;SDS011;57147;53.582;10.112;2023-04-16T14:54:09;15.10;;;11.30;;
69856;SDS011;57147;53.582;10.112;2023-04-16T14:59:23;16.23;;;11.50;;
69856;SDS011;57147;53.582;10.112;2023-04-16T15:04:37;15.68;;;10.95;;
69856;SDS011;57147;53.582;10.112;2023-04-16T15:09:37;15.10;;;11.15;;
69856;SDS011;57147;53.582;10.112;2023-04-16T15:14:43;18.55;;;12.07;;
69856;SDS011;57147;53.582;10.112;2023-04-16T15:19:44;15.40;;;11.07;;
69856;SDS011;57147;53.582;10.112;2023-04-16T15:24:45;18.83;;;12.30;;
69856;SDS011;57147;53.582;10.112;2023-04-16T15:29:48;16.00;;;11.93;;
69856;SDS011;57147;53.582;10.112;2023-04-16T15:34:48;16.20;;;12.23;;
69856;SDS011;57147;53.582;10.112;2023-04-16T15:39:49;17.63;;;11.80;;
69856;SDS011;57147;53.582;10.112;2023-04-16T15:44:52;15.63;;;10.63;;
69856;SDS011;57147;53.582;10.112;2023-04-16T15:49:53;16.15;;;11.23;;
69856;SDS011;57147;53.582;10.112;2023-04-16T15:54:53;16.38;;;11.55;;
69856;SDS011;57147;53.582;10.112;2023-04-16T15:59:57;15.82;;;10.70;;
69856;SDS011;57147;53.582;10.112;2023-04-16T16:04:57;18.35;;;12.93;;
69856;SDS011;57147;53.582;10.112;2023-04-16T16:09:58;17.98;;;11.68;;
69856;SDS011;57147;53.582;10.112;2023-04-16T16:15:01;16.65;;;12.18;;
69856;SDS011;57147;53.582;10.112;2023-04-16T16:20:03;18.50;;;12.82;;
69856;SDS011;57147;53.582;10.112;2023-04-16T16:25:05;18.00;;;12.00;;
69856;SDS011;57147;53.582;10.112;2023-04-16T16:30:09;20.88;;;14.48;;
69856;SDS011;57147;53.582;10.112;2023-04-16T16:35:11;22.80;;;13.82;;
69856;SDS011;57147;53.582;10.112;2023-04-16T16:40:11;19.75;;;14.10;;
69856;SDS011;57147;53.582;10.112;2023-04-16T16:45:15;20.92;;;14.80;;
69856;SDS011;57147;53.582;10.112;2023-04-16T16:50:15;18.65;;;11.93;;
69856;SDS011;57147;53.582;10.112;2023-04-16T16:55:16;19.40;;;13.48;;
69856;SDS011;57147;53.582;10.112;2023-04-16T17:00:20;26.15;;;17.77;;
69856;SDS011;57147;53.582;10.112;2023-04-16T17:05:21;16.98;;;12.07;;
69856;SDS011;57147;53.582;10.112;2023-04-16T17:10:21;17.83;;;14.80;;
69856;SDS011;57147;53.582;10.112;2023-04-16T17:15:25;15.60;;;11.27;;
69856;SDS011;57147;53.582;10.112;2023-04-16T17:20:27;21.00;;;12.48;;
69856;SDS011;57147;53.582;10.112;2023-04-16T17:25:28;17.98;;;13.70;;
69856;SDS011;57147;53.582;10.112;2023-04-16T17:30:31;21.73;;;13.80;;
69856;SDS011;57147;53.582;10.112;2023-04-16T17:35:32;19.65;;;13.18;;
69856;SDS011;57147;53.582;10.112;2023-04-16T17:40:33;20.10;;;12.65;;
69856;SDS011;57147;53.582;10.112;2023-04-16T17:45:36;18.65;;;12.52;;
69856;SDS011;57147;53.582;10.112;2023-04-16T17:50:36;20.90;;;13.63;;
69856;SDS011;57147;53.582;10.112;2023-04-16T17:55:37;19.85;;;14.40;;
69856;SDS011;57147;53.582;10.112;2023-04-16T18:00:40;18.67;;;12.77;;
69856;SDS011;57147;53.582;10.112;2023-04-16T18:05:41;19.40;;;13.88;;
69856;SDS011;57147;53.582;10.112;2023-04-16T18:10:42;18.77;;;14.13;;
69856;SDS011;57147;53.582;10.112;2023-04-16T18:15:45;20.33;;;13.02;;
69856;SDS011;57147;53.582;10.112;2023-04-16T18:20:45;20.30;;;13.02;;
69856;SDS011;57147;53.582;10.112;2023-04-16T18:25:46;20.00;;;13.77;;
69856;SDS011;57147;53.582;10.112;2023-04-16T18:30:49;17.88;;;12.77;;
69856;SDS011;57147;53.582;10.112;2023-04-16T18:35:51;19.88;;;14.30;;
69856;SDS011;57147;53.582;10.112;2023-04-16T18:40:51;23.70;;;16.40;;
69856;SDS011;57147;53.582;10.112;2023-04-16T18:45:55;19.05;;;13.27;;
69856;SDS011;57147;53.582;10.112;2023-04-16T18:50:55;18.92;;;13.63;;
69856;SDS011;57147;53.582;10.112;2023-04-16T18:55:56;24.88;;;17.52;;
69856;SDS011;57147;53.582;10.112;2023-04-16T19:00:59;21.00;;;15.43;;
69856;SDS011;57147;53.582;10.112;2023-04-16T19:06:00;21.40;;;13.90;;
69856;SDS011;57147;53.582;10.112;2023-04-16T19:11:01;17.13;;;11.95;;
69856;SDS011;57147;53.582;10.112;2023-04-16T19:16:04;19.92;;;13.07;;
69856;SDS011;57147;53.582;10.112;2023-04-16T19:21:05;19.10;;;12.75;;
69856;SDS011;57147;53.582;10.112;2023-04-16T19:26:05;18.58;;;12.60;;
69856;SDS011;57147;53.582;10.112;2023-04-16T19:31:09;17.95;;;13.23;;
69856;SDS011;57147;53.582;10.112;2023-04-16T19:36:09;19.30;;;12.45;;
69856;SDS011;57147;53.582;10.112;2023-04-16T19:41:10;18.95;;;14.15;;
69856;SDS011;57147;53.582;10.112;2023-04-16T19:46:14;21.00;;;15.30;;
69856;SDS011;57147;53.582;10.112;2023-04-16T19:51:15;19.73;;;14.65;;
69856;SDS011;57147;53.582;10.112;2023-04-16T19:56:16;19.52;;;12.63;;
69856;SDS011;57147;53.582;10.112;2023-04-16T20:01:19;21.83;;;13.45;;
69856;SDS011;57147;53.582;10.112;2023-04-16T20:06:20;20.13;;;14.82;;
69856;SDS011;57147;53.582;10.112;2023-04-16T20:11:20;19.27;;;14.88;;
69856;SDS011;57147;53.582;10.112;2023-04-16T20:16:24;27.38;;;18.27;;
69856;SDS011;57147;53.582;10.112;2023-04-16T20:21:25;21.75;;;13.93;;
69856;SDS011;57147;53.582;10.112;2023-04-16T20:26:25;18.52;;;14.48;;
69856;SDS011;57147;53.582;10.112;2023-04-16T20:31:29;21.25;;;14.15;;
69856;SDS011;57147;53.582;10.112;2023-04-16T20:36:29;21.42;;;14.55;;
69856;SDS011;57147;53.582;10.112;2023-04-16T20:41:30;21.15;;;12.68;;
69856;SDS011;57147;53.582;10.112;2023-04-16T20:46:33;21.38;;;13.45;;
69856;SDS011;57147;53.582;10.112;2023-04-16T20:51:34;21.05;;;13.57;;
69856;SDS011;57147;53.582;10.112;2023-04-16T20:56:34;20.77;;;15.05;;
69856;SDS011;57147;53.582;10.112;2023-04-16T21:01:38;22.60;;;15.27;;
69856;SDS011;57147;53.582;10.112;2023-04-16T21:06:38;21.02;;;13.98;;
69856;SDS011;57147;53.582;10.112;2023-04-16T21:11:39;17.73;;;12.40;;
69856;SDS011;57147;53.582;10.112;2023-04-16T21:16:42;22.38;;;14.07;;
69856;SDS011;57147;53.582;10.112;2023-04-16T21:21:43;22.40;;;15.73;;
69856;SDS011;57147;53.582;10.112;2023-04-16T21:26:44;23.25;;;15.32;;
69856;SDS011;57147;53.582;10.112;2023-04-16T21:31:47;19.10;;;13.43;;
69856;SDS011;57147;53.582;10.112;2023-04-16T21:36:47;21.73;;;13.95;;
69856;SDS011;57147;53.582;10.112;2023-04-16T21:41:48;18.92;;;13.10;;
69856;SDS011;57147;53.582;10.112;2023-04-16T21:46:51;19.75;;;13.55;;
69856;SDS011;57147;53.582;10.112;2023-04-16T21:51:52;19.75;;;14.10;;
69856;SDS011;57147;53.582;10.112;2023-04-16T21:56:52;19.58;;;12.73;;
69856;SDS011;57147;53.582;10.112;2023-04-16T22:01:56;18.52;;;12.93;;
69856;SDS011;57147;53.582;10.112;2023-04-16T22:06:56;19.45;;;13.43;;
69856;SDS011;57147;53.582;10.112;2023-04-16T22:11:57;21.02;;;15.45;;
69856;SDS011;57147;53.582;10.112;2023-04-16T22:17:01;16.92;;;12.45;;
69856;SDS011;57147;53.582;10.112;2023-04-16T22:22:02;20.80;;;12.65;;
69856;SDS011;57147;53.582;10.112;2023-04-16T22:27:02;20.35;;;12.95;;
69856;SDS011;57147;53.582;10.112;2023-04-16T22:32:06;19.27;;;13.52;;
69856;SDS011;57147;53.582;10.112;2023-04-16T22:37:06;22.35;;;13.60;;
69856;SDS011;57147;53.582;10.112;2023-04-16T22:42:07;19.15;;;13.80;;
69856;SDS011;57147;53.582;10.112;2023-04-16T22:47:10;21.17;;;13.52;;
69856;SDS011;57147;53.582;10.112;2023-04-16T22:52:11;19.85;;;14.27;;
69856;SDS011;57147;53.582;10.112;2023-04-16T22:57:11;18.52;;;12.35;;
69856;SDS011;57147;53.582;10.112;2023-04-16T23:02:14;19.55;;;12.73;;
69856;SDS011;57147;53.582;10.112;2023-04-16T23:07:15;20.75;;;13.07;;
69856;SDS011;57147;53.582;10.112;2023-04-16T23:12:16;19.73;;;13.45;;
69856;SDS011;57147;53.582;10.112;2023-04-16T23:17:19;21.83;;;12.85;;
69856;SDS011;57147;53.582;10.112;2023-04-16T23:22:19;21.73;;;13.27;;
69856;SDS011;57147;53.582;10.112;2023-04-16T23:27:20;22.30;;;14.00;;
69856;SDS011;57147;53.582;10.112;2023-04-16T23:32:23;19.50;;;12.93;;
69856;SDS011;57147;53.582;10.112;2023-04-16T23:37:24;19.08;;;12.70;;
69856;SDS011;57147;53.582;10.112;2023-04-16T23:42:24;19.17;;;12.65;;
69856;SDS011;57147;53.582;10.112;2023-04-16T23:47:27;20.05;;;13.00;;
69856;SDS011;57147;53.582;10.112;2023-04-16T23:52:28;20.75;;;13.15;;
69856;SDS011;57147;53.582;10.112;2023-04-16T23:57:29;18.63;;;13.38;;
